Time;durP1;ratioP1;P1;durP2;ratioP2;P2;SDS_P1;SDS_P2;PMS_P1;PMS_P2;Temp;Humidity;BMP_temperature;BMP_pressure;BME280_temperature;BME280_humidity;BME280_pressure;Samples;Min_cycle;Max_cycle;Signal;HPM_P1;HPM_P2
2023/05/07 00:00:59;;;;;;;4.10;3.70;;;13.10;99.90;;;;;;5067940;28;20456;-79
2023/05/07 00:03:27;;;;;;;4.70;4.10;;;13.00;99.90;;;;;;5058329;28;20500;-79
2023/05/07 00:05:54;;;;;;;4.30;4.00;;;13.00;99.90;;;;;;5059981;28;20883;-79
2023/05/07 00:08:21;;;;;;;4.57;4.27;;;12.90;99.90;;;;;;5068145;28;20456;-79
2023/05/07 00:10:48;;;;;;;4.83;4.40;;;12.90;99.90;;;;;;5067852;28;20444;-78
2023/05/07 00:13:16;;;;;;;4.10;3.80;;;12.90;99.90;;;;;;5062239;28;20537;-78
2023/05/07 00:15:45;;;;;;;3.33;3.10;;;12.80;99.90;;;;;;5066809;28;20456;-78
2023/05/07 00:18:11;;;;;;;5.93;2.83;;;12.70;99.90;;;;;;5064892;28;20471;-83
2023/05/07 00:20:38;;;;;;;3.67;3.37;;;12.70;99.90;;;;;;5063565;28;20522;-78
2023/05/07 00:23:05;;;;;;;3.93;3.70;;;12.80;99.90;;;;;;5058789;28;20876;-81
2023/05/07 00:25:32;;;;;;;4.33;3.80;;;12.70;99.90;;;;;;5067573;28;20440;-78
2023/05/07 00:28:03;;;;;;;2.70;2.60;;;12.70;99.90;;;;;;5053124;28;20520;-79
2023/05/07 00:30:30;;;;;;;4.03;3.63;;;12.80;99.90;;;;;;5054445;28;20495;-78
2023/05/07 00:32:59;;;;;;;3.67;3.47;;;13.00;99.90;;;;;;5059073;28;20451;-78
2023/05/07 00:35:26;;;;;;;3.67;3.43;;;13.10;99.90;;;;;;5064538;28;20787;-82
2023/05/07 00:37:53;;;;;;;5.07;4.67;;;13.20;99.90;;;;;;5063940;28;21130;-78
2023/05/07 00:40:20;;;;;;;4.10;3.80;;;13.10;99.90;;;;;;5064612;28;20510;-78
2023/05/07 00:42:48;;;;;;;3.60;3.40;;;13.20;99.90;;;;;;5065846;28;20893;-78
2023/05/07 00:45:16;;;;;;;3.50;3.20;;;13.30;99.90;;;;;;5062826;28;20472;-81
2023/05/07 00:47:44;;;;;;;3.90;3.70;;;13.20;99.90;;;;;;5067220;28;20444;-80
2023/05/07 00:50:13;;;;;;;4.57;4.27;;;13.30;99.90;;;;;;5062739;28;20505;-83
2023/05/07 00:52:41;;;;;;;4.30;4.00;;;13.30;99.90;;;;;;5056943;28;20475;-79
2023/05/07 00:55:09;;;;;;;4.30;4.00;;;13.10;99.90;;;;;;5064722;28;20468;-78
2023/05/07 00:57:39;;;;;;;4.33;3.93;;;13.00;99.90;;;;;;5059450;28;20470;-76
2023/05/07 01:00:08;;;;;;;4.40;4.20;;;12.90;99.90;;;;;;5062764;28;20451;-78
2023/05/07 01:02:35;;;;;;;4.63;4.33;;;12.90;99.90;;;;;;5059562;28;20466;-82
2023/05/07 01:05:04;;;;;;;5.37;4.97;;;12.90;99.90;;;;;;5057307;28;20444;-81
2023/05/07 01:07:33;;;;;;;5.87;5.10;;;12.80;99.90;;;;;;5056556;28;20473;-81
2023/05/07 01:10:00;;;;;;;5.37;4.97;;;12.90;99.90;;;;;;5063163;28;21018;-78
2023/05/07 01:12:29;;;;;;;6.80;6.10;;;12.90;99.90;;;;;;5061030;28;20604;-78
2023/05/07 01:14:56;;;;;;;11.77;6.30;;;13.00;99.90;;;;;;5064509;28;20510;-79
2023/05/07 01:17:23;;;;;;;6.57;6.03;;;12.80;99.90;;;;;;5059890;28;20472;-79
2023/05/07 01:19:52;;;;;;;7.37;6.87;;;12.70;99.90;;;;;;5065584;28;20525;-79
2023/05/07 01:22:29;;;;;;;7.17;6.57;;;12.60;99.90;;;;;;5051436;28;20437;-82
2023/05/07 01:24:57;;;;;;;7.53;5.90;;;12.50;99.90;;;;;;5062003;28;20483;-78
2023/05/07 01:27:24;;;;;;;5.63;5.13;;;12.30;99.90;;;;;;5052088;28;20469;-79
2023/05/07 01:29:51;;;;;;;6.47;5.57;;;12.20;99.90;;;;;;5053653;28;20464;-79
2023/05/07 01:32:22;;;;;;;6.13;5.63;;;12.30;99.90;;;;;;5065596;28;20465;-81
2023/05/07 01:34:50;;;;;;;6.27;5.80;;;12.30;99.90;;;;;;5059496;28;20461;-79
2023/05/07 01:37:18;;;;;;;10.80;5.00;;;12.30;99.90;;;;;;5057982;28;20440;-79
2023/05/07 01:39:47;;;;;;;6.33;4.10;;;12.20;99.90;;;;;;5057578;28;20506;-79
2023/05/07 01:42:14;;;;;;;4.53;4.23;;;12.20;99.90;;;;;;5057264;28;20498;-79
2023/05/07 01:44:40;;;;;;;5.00;3.17;;;12.10;99.90;;;;;;5062385;28;20480;-78
2023/05/07 01:47:08;;;;;;;2.57;2.43;;;12.10;99.90;;;;;;5062490;28;20510;-79
2023/05/07 01:49:35;;;;;;;3.00;2.80;;;12.10;99.90;;;;;;5064144;28;20537;-82
2023/05/07 01:52:04;;;;;;;3.73;3.30;;;12.20;99.90;;;;;;5069086;28;20449;-78
2023/05/07 01:54:32;;;;;;;2.93;2.67;;;12.10;99.90;;;;;;5067457;28;20514;-82
2023/05/07 01:57:00;;;;;;;6.60;2.33;;;12.10;99.90;;;;;;5056578;28;20447;-79
2023/05/07 01:59:27;;;;;;;2.93;2.60;;;12.10;99.90;;;;;;5065728;28;20456;-80
2023/05/07 02:01:56;;;;;;;2.43;2.23;;;12.00;99.90;;;;;;5063862;28;20460;-78
2023/05/07 02:04:23;;;;;;;2.00;1.90;;;12.00;99.90;;;;;;5060381;28;20479;-79
2023/05/07 02:06:50;;;;;;;3.10;1.73;;;11.90;99.90;;;;;;5060377;28;20866;-78
2023/05/07 02:09:17;;;;;;;4.50;2.20;;;11.90;99.90;;;;;;5062577;28;20961;-79
2023/05/07 02:11:44;;;;;;;2.53;2.40;;;11.90;99.90;;;;;;5059648;28;20441;-81
2023/05/07 02:14:12;;;;;;;2.93;1.67;;;11.80;99.90;;;;;;5066239;28;20480;-77
2023/05/07 02:16:39;;;;;;;4.00;3.70;;;11.90;99.90;;;;;;5062735;28;20440;-79
2023/05/07 02:19:06;;;;;;;6.03;2.40;;;11.90;99.90;;;;;;5066571;28;21111;-80
2023/05/07 02:21:33;;;;;;;2.33;2.13;;;11.90;99.90;;;;;;5065977;28;20476;-79
2023/05/07 02:24:00;;;;;;;3.63;2.60;;;11.90;99.90;;;;;;5062484;28;20488;-78
2023/05/07 02:26:27;;;;;;;2.30;1.90;;;11.90;99.90;;;;;;5061413;28;20490;-79
2023/05/07 02:28:54;;;;;;;2.20;1.93;;;12.00;99.90;;;;;;5063453;28;20465;-81
2023/05/07 02:31:22;;;;;;;2.67;2.47;;;12.00;99.90;;;;;;5058455;28;20437;-78
2023/05/07 02:33:49;;;;;;;2.03;1.80;;;12.00;99.90;;;;;;5063001;28;20441;-79
2023/05/07 02:36:16;;;;;;;1.93;1.80;;;11.90;99.90;;;;;;5059513;28;20460;-78
2023/05/07 02:38:43;;;;;;;2.87;2.60;;;11.90;99.90;;;;;;5065006;28;20529;-79
2023/05/07 02:41:10;;;;;;;2.60;2.40;;;12.00;99.90;;;;;;5057875;28;20505;-78
2023/05/07 02:43:38;;;;;;;2.70;2.50;;;12.00;99.90;;;;;;5063819;28;20537;-78
2023/05/07 02:46:07;;;;;;;2.40;2.30;;;12.00;99.90;;;;;;5061613;28;20446;-79
2023/05/07 02:48:35;;;;;;;2.80;2.63;;;12.00;99.90;;;;;;5058709;28;20552;-78
2023/05/07 02:51:03;;;;;;;3.63;2.77;;;12.10;99.90;;;;;;5056536;28;20502;-78
2023/05/07 02:53:30;;;;;;;2.50;2.40;;;12.00;99.90;;;;;;5067543;28;20472;-82
2023/05/07 02:55:58;;;;;;;4.70;2.83;;;11.90;99.90;;;;;;5083283;28;20856;-80
2023/05/07 02:58:25;;;;;;;2.60;2.13;;;11.90;99.90;;;;;;5085495;28;20997;-77
2023/05/07 03:00:52;;;;;;;2.90;2.23;;;11.90;99.90;;;;;;5079389;28;20460;-77
2023/05/07 03:03:19;;;;;;;2.30;2.20;;;11.90;99.90;;;;;;5069989;28;20762;-79
2023/05/07 03:05:48;;;;;;;1.70;1.60;;;11.90;99.90;;;;;;5069378;28;20778;-83
2023/05/07 03:08:15;;;;;;;2.33;2.13;;;11.90;99.90;;;;;;5067829;28;20460;-80
2023/05/07 03:10:42;;;;;;;4.20;2.10;;;11.90;99.90;;;;;;5057398;28;20476;-80
2023/05/07 03:13:09;;;;;;;1.80;1.70;;;11.80;99.90;;;;;;5065889;28;20444;-78
2023/05/07 03:15:36;;;;;;;2.43;2.17;;;11.90;99.90;;;;;;5064335;28;20459;-78
2023/05/07 03:18:03;;;;;;;3.57;1.80;;;11.90;99.90;;;;;;5059793;28;20472;-78
2023/05/07 03:20:30;;;;;;;1.60;1.50;;;11.90;99.90;;;;;;5062831;28;20701;-81
2023/05/07 03:22:58;;;;;;;2.30;2.20;;;11.90;99.90;;;;;;5059704;28;20518;-78
2023/05/07 03:25:25;;;;;;;2.63;2.43;;;11.90;99.90;;;;;;5055183;28;20488;-79
2023/05/07 03:27:52;;;;;;;1.73;1.63;;;11.90;99.90;;;;;;5067397;28;20980;-78
2023/05/07 03:30:19;;;;;;;2.47;2.37;;;11.90;99.90;;;;;;5060939;28;20530;-78
2023/05/07 03:32:46;;;;;;;1.73;1.60;;;11.90;99.90;;;;;;5064374;28;20444;-79
2023/05/07 03:35:14;;;;;;;1.80;1.70;;;11.90;99.90;;;;;;5066011;28;21058;-79
2023/05/07 03:37:40;;;;;;;2.10;1.90;;;12.00;99.90;;;;;;5064226;28;20448;-78
2023/05/07 03:40:12;;;;;;;2.30;2.10;;;11.90;99.90;;;;;;5061767;28;20493;-79
2023/05/07 03:42:39;;;;;;;2.40;2.20;;;11.90;99.90;;;;;;5058005;28;20448;-80
2023/05/07 03:45:07;;;;;;;2.40;2.00;;;11.90;99.90;;;;;;5061820;28;20480;-79
2023/05/07 03:47:34;;;;;;;2.33;2.23;;;11.70;99.90;;;;;;5059308;28;20564;-78
2023/05/07 03:50:01;;;;;;;2.43;2.23;;;11.70;99.90;;;;;;5065217;28;20559;-78
2023/05/07 03:52:28;;;;;;;2.27;1.77;;;11.70;99.90;;;;;;5062876;28;20461;-80
2023/05/07 03:54:55;;;;;;;2.27;2.07;;;11.70;99.90;;;;;;5061767;28;20514;-81
2023/05/07 03:57:23;;;;;;;2.60;2.40;;;11.70;99.90;;;;;;5059694;28;20460;-79
2023/05/07 03:59:50;;;;;;;2.03;1.93;;;11.60;99.90;;;;;;5059046;28;20521;-78
2023/05/07 04:02:17;;;;;;;2.27;2.17;;;11.60;99.90;;;;;;5063987;28;20464;-79
2023/05/07 04:04:44;;;;;;;2.90;2.70;;;11.60;99.90;;;;;;5063180;28;20993;-78
2023/05/07 04:07:11;;;;;;;2.60;2.40;;;11.60;99.90;;;;;;5054675;28;21286;-79
2023/05/07 04:09:38;;;;;;;2.77;2.57;;;11.50;99.90;;;;;;5058578;28;20553;-81
2023/05/07 04:12:05;;;;;;;2.90;2.70;;;11.50;99.90;;;;;;5056477;28;20453;-79
2023/05/07 04:14:34;;;;;;;3.07;2.80;;;11.60;99.90;;;;;;5064068;28;20468;-77
2023/05/07 04:17:01;;;;;;;2.50;2.30;;;11.50;99.90;;;;;;5052145;28;20570;-78
2023/05/07 04:19:28;;;;;;;2.50;2.30;;;11.50;99.90;;;;;;5062181;28;21012;-82
2023/05/07 04:21:55;;;;;;;3.13;2.17;;;11.50;99.90;;;;;;5063073;28;20450;-81
2023/05/07 04:24:21;;;;;;;2.07;1.80;;;11.60;99.90;;;;;;5065391;28;20538;-79
2023/05/07 04:26:48;;;;;;;2.93;2.63;;;11.60;99.90;;;;;;5063413;28;20503;-79
2023/05/07 04:29:15;;;;;;;4.13;3.37;;;11.60;99.90;;;;;;5065081;28;20468;-79
2023/05/07 04:31:44;;;;;;;3.03;2.73;;;11.60;99.90;;;;;;5056959;28;21028;-79
2023/05/07 04:34:11;;;;;;;2.40;2.20;;;11.50;99.90;;;;;;5057646;28;20495;-83
2023/05/07 04:36:39;;;;;;;2.50;2.03;;;11.50;99.90;;;;;;5059179;28;20619;-82
2023/05/07 04:39:06;;;;;;;2.67;2.47;;;11.60;99.90;;;;;;5058499;28;20932;-79
2023/05/07 04:41:33;;;;;;;3.07;2.77;;;11.60;99.90;;;;;;5048422;28;20464;-79
2023/05/07 04:44:00;;;;;;;2.60;2.50;;;11.50;99.90;;;;;;5061372;28;20483;-80
2023/05/07 04:46:27;;;;;;;2.90;1.90;;;11.40;99.90;;;;;;5051338;28;20456;-77
2023/05/07 04:48:55;;;;;;;3.20;2.77;;;11.30;99.90;;;;;;5060184;28;20499;-81
2023/05/07 04:51:22;;;;;;;2.00;1.90;;;11.40;99.90;;;;;;5061109;28;20986;-80
2023/05/07 04:53:50;;;;;;;2.50;2.27;;;11.40;99.90;;;;;;5064745;28;20821;-78
2023/05/07 04:56:17;;;;;;;2.77;2.20;;;11.50;99.90;;;;;;5054106;28;20457;-78
2023/05/07 04:58:44;;;;;;;2.73;2.53;;;11.60;99.90;;;;;;5060952;28;20999;-80
2023/05/07 05:01:11;;;;;;;2.60;1.97;;;11.80;99.90;;;;;;5056562;28;20460;-80
2023/05/07 05:03:40;;;;;;;2.67;2.47;;;11.90;99.90;;;;;;5055884;28;20939;-79
2023/05/07 05:06:09;;;;;;;2.83;2.63;;;11.90;99.90;;;;;;5057283;28;20479;-80
2023/05/07 05:08:36;;;;;;;3.53;2.87;;;12.20;99.90;;;;;;5052674;28;20934;-78
2023/05/07 05:11:03;;;;;;;2.40;2.20;;;12.20;99.90;;;;;;5065080;28;20460;-81
2023/05/07 05:13:30;;;;;;;3.40;3.03;;;12.30;99.90;;;;;;5062126;28;20546;-79
2023/05/07 05:15:57;;;;;;;2.97;2.47;;;12.30;99.90;;;;;;5062011;28;20448;-81
2023/05/07 05:18:24;;;;;;;4.20;3.90;;;12.30;99.90;;;;;;5062014;28;20895;-79
2023/05/07 05:20:52;;;;;;;2.53;2.33;;;12.30;99.90;;;;;;5064616;28;20849;-80
2023/05/07 05:23:20;;;;;;;3.60;3.30;;;12.20;99.90;;;;;;5064114;28;20514;-79
2023/05/07 05:25:47;;;;;;;3.13;2.83;;;12.20;99.90;;;;;;5063094;28;20978;-80
2023/05/07 05:28:15;;;;;;;2.80;2.60;;;12.20;99.90;;;;;;5069194;28;20459;-79
2023/05/07 05:30:42;;;;;;;3.27;3.07;;;12.20;99.90;;;;;;5053106;28;20441;-79
2023/05/07 05:33:08;;;;;;;7.20;2.83;;;12.20;99.90;;;;;;5063523;28;20445;-79
2023/05/07 05:35:35;;;;;;;3.40;2.90;;;12.40;99.90;;;;;;5059777;28;20523;-81
2023/05/07 05:38:03;;;;;;;3.17;2.97;;;12.70;99.90;;;;;;5064092;28;20461;-79
2023/05/07 05:40:31;;;;;;;3.77;3.40;;;12.70;99.90;;;;;;5056461;28;20576;-79
2023/05/07 05:42:58;;;;;;;4.80;3.90;;;12.90;99.90;;;;;;5067802;28;20512;-81
2023/05/07 05:45:26;;;;;;;3.20;3.00;;;13.00;99.90;;;;;;5064982;28;20476;-80
2023/05/07 05:47:53;;;;;;;3.30;3.10;;;13.00;99.90;;;;;;5068053;28;20529;-79
2023/05/07 05:50:20;;;;;;;4.60;4.20;;;12.90;99.90;;;;;;5066628;28;20521;-79
2023/05/07 05:52:47;;;;;;;4.13;3.63;;;13.00;99.90;;;;;;5066108;28;20436;-79
2023/05/07 05:55:14;;;;;;;4.83;4.43;;;13.10;99.90;;;;;;5068986;28;20490;-76
2023/05/07 05:57:42;;;;;;;3.90;3.70;;;13.20;99.90;;;;;;5068048;28;21130;-79
2023/05/07 06:00:10;;;;;;;4.43;4.13;;;13.30;99.90;;;;;;5057213;28;21037;-78
2023/05/07 06:02:37;;;;;;;4.03;3.73;;;13.40;99.90;;;;;;5067486;28;20440;-74
2023/05/07 06:05:05;;;;;;;3.97;3.60;;;13.50;99.90;;;;;;5082436;28;20529;-74
2023/05/07 06:07:32;;;;;;;5.90;5.47;;;13.60;99.90;;;;;;5074806;28;20444;-73
2023/05/07 06:09:59;;;;;;;5.67;5.17;;;13.80;99.90;;;;;;5072980;28;20456;-77
2023/05/07 06:12:26;;;;;;;6.17;5.60;;;13.80;99.90;;;;;;5064233;28;20444;-79
2023/05/07 06:14:54;;;;;;;6.50;5.63;;;14.00;99.90;;;;;;5062775;28;20991;-77
2023/05/07 06:17:21;;;;;;;6.40;5.80;;;14.10;99.90;;;;;;5066240;28;20510;-79
2023/05/07 06:19:48;;;;;;;6.47;5.87;;;14.20;99.90;;;;;;5068224;28;20803;-78
2023/05/07 06:22:15;;;;;;;7.90;7.20;;;14.30;99.90;;;;;;5061507;28;21057;-75
2023/05/07 06:24:42;;;;;;;8.00;7.20;;;14.50;99.90;;;;;;5068763;28;20502;-75
2023/05/07 06:27:10;;;;;;;5.83;5.30;;;14.70;99.90;;;;;;5056232;28;20462;-76
2023/05/07 06:29:37;;;;;;;8.13;7.33;;;15.00;99.90;;;;;;5066307;28;20468;-78
2023/05/07 06:32:12;;;;;;;8.43;7.13;;;15.20;99.90;;;;;;5064712;28;20518;-75
2023/05/07 06:34:39;;;;;;;9.90;6.33;;;15.40;99.90;;;;;;5060368;28;20724;-76
2023/05/07 06:37:07;;;;;;;6.70;6.10;;;15.40;99.90;;;;;;5062939;28;20433;-76
2023/05/07 06:39:34;;;;;;;10.57;6.33;;;15.60;99.90;;;;;;5060480;28;20457;-75
2023/05/07 06:42:02;;;;;;;6.57;5.97;;;15.50;99.90;;;;;;5065986;28;20439;-75
2023/05/07 06:44:29;;;;;;;6.80;6.13;;;15.40;99.90;;;;;;5062316;28;20465;-77
2023/05/07 06:46:57;;;;;;;9.03;6.80;;;15.40;99.90;;;;;;5065248;28;20545;-75
2023/05/07 06:49:26;;;;;;;7.97;6.23;;;15.40;99.90;;;;;;5058137;28;20488;-75
2023/05/07 06:51:53;;;;;;;7.00;6.30;;;15.50;99.90;;;;;;5057612;28;20513;-80
2023/05/07 06:54:21;;;;;;;7.70;6.90;;;15.70;99.90;;;;;;5063730;28;20860;-76
2023/05/07 06:56:48;;;;;;;7.07;6.37;;;15.90;99.90;;;;;;5059465;28;20441;-77
2023/05/07 06:59:15;;;;;;;8.27;6.50;;;16.00;99.90;;;;;;5063159;28;20935;-76
2023/05/07 07:01:42;;;;;;;6.57;6.03;;;16.10;99.90;;;;;;5063799;28;20545;-75
2023/05/07 07:04:09;;;;;;;5.60;5.20;;;15.90;99.90;;;;;;5066773;28;20586;-76
2023/05/07 07:06:38;;;;;;;7.13;6.53;;;16.00;99.90;;;;;;5067449;28;20487;-75
2023/05/07 07:09:05;;;;;;;6.00;5.50;;;16.00;99.90;;;;;;5064694;28;20537;-79
2023/05/07 07:11:32;;;;;;;5.57;5.07;;;16.10;99.90;;;;;;5064318;28;20517;-80
2023/05/07 07:13:59;;;;;;;6.27;5.73;;;16.20;99.90;;;;;;5062118;28;20438;-75
2023/05/07 07:16:26;;;;;;;6.37;5.80;;;16.30;99.90;;;;;;5063468;28;20453;-77
2023/05/07 07:18:53;;;;;;;7.13;6.40;;;16.50;99.90;;;;;;5060377;28;20514;-79
2023/05/07 07:21:20;;;;;;;6.90;6.13;;;16.50;99.90;;;;;;5060762;28;20494;-75
2023/05/07 07:23:48;;;;;;;6.23;5.73;;;16.50;99.90;;;;;;5065807;28;20448;-76
2023/05/07 07:26:15;;;;;;;7.40;6.80;;;16.60;99.90;;;;;;5067732;28;20545;-78
2023/05/07 07:28:46;;;;;;;5.80;5.30;;;16.50;99.90;;;;;;5065576;28;20465;-75
2023/05/07 07:31:13;;;;;;;6.03;5.43;;;16.50;99.90;;;;;;5066098;28;20471;-75
2023/05/07 07:33:40;;;;;;;6.30;5.70;;;16.60;99.90;;;;;;5064072;28;20437;-76
2023/05/07 07:36:08;;;;;;;5.80;5.20;;;16.70;99.90;;;;;;5057099;28;20472;-76
2023/05/07 07:38:35;;;;;;;6.67;6.00;;;17.00;99.90;;;;;;5056233;28;20549;-75
2023/05/07 07:41:04;;;;;;;10.60;5.87;;;16.80;99.90;;;;;;5054830;28;20475;-81
2023/05/07 07:43:31;;;;;;;6.47;5.97;;;17.00;99.90;;;;;;5059855;28;20517;-75
2023/05/07 07:45:58;;;;;;;6.93;6.30;;;16.90;99.90;;;;;;5066468;28;20481;-75
2023/05/07 07:48:25;;;;;;;6.77;6.07;;;16.80;99.90;;;;;;5062583;28;20477;-75
2023/05/07 07:50:52;;;;;;;5.33;4.93;;;16.90;99.90;;;;;;5064807;28;20462;-76
2023/05/07 07:53:20;;;;;;;5.73;5.13;;;17.00;99.90;;;;;;5062731;28;20494;-76
2023/05/07 07:55:47;;;;;;;6.67;6.00;;;17.10;99.90;;;;;;5065492;28;20444;-79
2023/05/07 07:58:15;;;;;;;5.30;4.90;;;17.10;99.90;;;;;;5059512;28;20475;-76
2023/05/07 08:00:42;;;;;;;5.67;5.17;;;17.20;99.90;;;;;;5063420;28;20486;-79
2023/05/07 08:03:11;;;;;;;6.90;5.90;;;17.40;99.90;;;;;;5059008;28;20515;-80
2023/05/07 08:05:38;;;;;;;6.27;5.77;;;17.60;99.90;;;;;;5066698;28;20569;-76
2023/05/07 08:08:05;;;;;;;6.53;5.90;;;17.60;99.90;;;;;;5057891;28;20499;-74
2023/05/07 08:10:34;;;;;;;10.70;5.70;;;17.70;99.90;;;;;;5063456;28;20467;-75
2023/05/07 08:13:03;;;;;;;5.87;5.33;;;17.80;99.90;;;;;;5053875;28;20459;-78
2023/05/07 08:15:31;;;;;;;7.43;6.73;;;17.80;99.90;;;;;;5060995;28;20455;-76
2023/05/07 08:17:59;;;;;;;6.13;5.53;;;18.00;99.90;;;;;;5054105;28;20584;-76
2023/05/07 08:20:27;;;;;;;6.10;5.50;;;18.00;99.90;;;;;;5062177;28;20970;-76
2023/05/07 08:22:54;;;;;;;5.47;4.87;;;17.80;99.90;;;;;;5063543;28;20456;-76
2023/05/07 08:25:21;;;;;;;8.80;6.47;;;17.90;99.90;;;;;;5064768;28;20482;-77
2023/05/07 08:27:48;;;;;;;6.50;5.90;;;17.90;99.90;;;;;;5066054;28;20512;-76
2023/05/07 08:30:15;;;;;;;6.90;6.20;;;18.00;99.90;;;;;;5055719;28;20463;-78
2023/05/07 08:32:44;;;;;;;4.80;4.40;;;18.00;99.90;;;;;;5059677;28;20467;-76
2023/05/07 08:35:11;;;;;;;5.63;5.13;;;18.20;99.90;;;;;;5058254;28;20443;-76
2023/05/07 08:37:38;;;;;;;5.87;5.30;;;18.00;99.90;;;;;;5052799;28;20806;-77
2023/05/07 08:40:06;;;;;;;5.40;4.90;;;18.20;99.90;;;;;;5059420;28;20443;-78
2023/05/07 08:42:37;;;;;;;4.87;4.47;;;18.60;99.90;;;;;;5054274;28;21021;-76
2023/05/07 08:45:06;;;;;;;5.50;5.00;;;18.50;99.90;;;;;;5059228;28;20446;-77
2023/05/07 08:47:40;;;;;;;5.27;4.77;;;18.30;99.90;;;;;;5059319;28;20457;-75
2023/05/07 08:50:10;;;;;;;6.00;5.43;;;18.40;99.90;;;;;;5062814;28;20772;-76
2023/05/07 08:52:37;;;;;;;6.20;4.80;;;18.60;99.90;;;;;;5060283;28;20443;-75
2023/05/07 08:55:04;;;;;;;5.03;4.63;;;18.60;99.90;;;;;;5062111;28;20521;-76
2023/05/07 08:57:31;;;;;;;4.77;4.40;;;18.60;99.90;;;;;;5064704;28;20461;-75
2023/05/07 08:59:58;;;;;;;5.60;5.10;;;18.70;99.90;;;;;;5062724;28;20498;-75
2023/05/07 09:02:25;;;;;;;5.13;4.73;;;18.70;99.90;;;;;;5064109;28;20517;-75
2023/05/07 09:04:52;;;;;;;5.30;4.80;;;18.80;99.90;;;;;;5066349;28;20448;-76
2023/05/07 09:07:22;;;;;;;6.57;5.97;;;19.10;99.90;;;;;;5071138;28;20485;-77
2023/05/07 09:09:49;;;;;;;6.20;5.63;;;19.40;99.90;;;;;;5063480;28;20537;-78
2023/05/07 09:12:16;;;;;;;6.93;6.23;;;19.50;99.90;;;;;;5068353;28;20452;-76
2023/05/07 09:14:43;;;;;;;6.50;6.00;;;19.50;99.90;;;;;;5064753;28;20452;-76
2023/05/07 09:17:10;;;;;;;5.83;5.37;;;19.30;99.90;;;;;;5066608;28;20505;-77
2023/05/07 09:19:36;;;;;;;5.50;5.10;;;19.20;99.90;;;;;;5062756;28;20451;-76
2023/05/07 09:22:06;;;;;;;5.83;5.33;;;19.30;99.90;;;;;;5059007;28;20507;-76
2023/05/07 09:24:37;;;;;;;6.10;5.60;;;19.70;99.90;;;;;;5063589;28;20511;-80
2023/05/07 09:27:04;;;;;;;5.53;5.07;;;19.80;99.90;;;;;;5064552;28;20504;-79
2023/05/07 09:29:35;;;;;;;5.50;5.07;;;19.80;99.90;;;;;;5064275;28;20460;-77
2023/05/07 09:32:02;;;;;;;4.60;4.20;;;19.70;97.40;;;;;;5055490;28;20802;-76
2023/05/07 09:34:30;;;;;;;6.83;5.20;;;19.70;97.70;;;;;;5062476;28;20443;-74
2023/05/07 09:36:58;;;;;;;5.13;4.73;;;19.80;98.30;;;;;;5056402;28;20448;-77
2023/05/07 09:39:26;;;;;;;5.60;5.20;;;19.60;97.20;;;;;;5054001;28;20461;-78
2023/05/07 09:41:58;;;;;;;6.30;5.70;;;19.70;99.90;;;;;;5064822;28;20448;-77
2023/05/07 09:44:26;;;;;;;6.00;5.40;;;19.90;99.70;;;;;;5064236;28;20535;-79
2023/05/07 09:46:55;;;;;;;3.90;3.60;;;20.30;98.90;;;;;;5057616;28;20568;-77
2023/05/07 09:49:26;;;;;;;5.33;4.63;;;20.50;97.80;;;;;;5053712;28;20476;-77
2023/05/07 09:51:54;;;;;;;3.63;3.33;;;20.40;98.10;;;;;;5056645;28;20468;-81
2023/05/07 09:54:21;;;;;;;3.50;3.20;;;20.20;97.90;;;;;;5061701;28;20531;-77
2023/05/07 09:56:49;;;;;;;5.00;4.53;;;20.20;97.20;;;;;;5066195;28;20505;-77
2023/05/07 09:59:18;;;;;;;4.57;4.17;;;20.30;98.80;;;;;;5061730;28;20589;-78
2023/05/07 10:01:45;;;;;;;5.60;5.20;;;20.50;98.80;;;;;;5065188;28;20464;-78
2023/05/07 10:04:13;;;;;;;5.70;4.80;;;20.60;96.60;;;;;;5066045;28;20436;-78
2023/05/07 10:06:40;;;;;;;5.03;4.60;;;20.70;97.20;;;;;;5061977;28;20480;-77
2023/05/07 10:09:08;;;;;;;4.53;4.17;;;20.60;96.10;;;;;;5066462;28;20444;-77
2023/05/07 10:11:35;;;;;;;4.17;3.77;;;20.50;96.60;;;;;;5065073;28;20455;-76
2023/05/07 10:14:02;;;;;;;3.70;3.40;;;20.60;96.50;;;;;;5068909;28;20447;-78
2023/05/07 10:16:32;;;;;;;4.07;3.80;;;20.80;96.90;;;;;;5068184;28;20996;-77
2023/05/07 10:18:59;;;;;;;4.60;3.97;;;20.70;96.80;;;;;;5063585;28;20458;-80
2023/05/07 10:21:28;;;;;;;4.27;3.97;;;20.70;97.90;;;;;;5069053;28;21149;-77
2023/05/07 10:24:00;;;;;;;5.13;3.63;;;21.00;98.30;;;;;;5055164;28;20453;-78
2023/05/07 10:26:30;;;;;;;4.50;4.10;;;21.10;97.20;;;;;;5068372;28;20491;-79
2023/05/07 10:29:02;;;;;;;5.80;4.93;;;20.70;96.20;;;;;;5069391;28;20460;-78
2023/05/07 10:31:55;;;;;;;3.80;3.50;;;21.10;96.80;;;;;;5065873;28;20570;-77
2023/05/07 10:34:27;;;;;;;4.00;3.60;;;21.30;96.70;;;;;;5065611;28;20440;-78
2023/05/07 10:36:56;;;;;;;3.80;3.50;;;21.70;97.20;;;;;;5067209;28;20537;-78
2023/05/07 10:39:23;;;;;;;4.40;4.10;;;22.00;95.10;;;;;;5066044;28;20522;-82
2023/05/07 10:41:50;;;;;;;3.77;3.50;;;21.60;94.00;;;;;;5069037;28;20493;-77
2023/05/07 10:44:28;;;;;;;4.20;3.90;;;21.60;94.70;;;;;;5066241;28;20453;-80
2023/05/07 10:47:12;;;;;;;3.47;3.17;;;21.40;95.70;;;;;;5059819;28;21205;-78
2023/05/07 10:50:12;;;;;;;4.30;3.90;;;21.60;93.90;;;;;;5056650;28;20653;-78
2023/05/07 10:52:39;;;;;;;3.83;3.50;;;21.80;94.10;;;;;;5066254;28;20460;-77
2023/05/07 10:55:24;;;;;;;3.70;3.40;;;21.50;94.90;;;;;;5068686;28;20478;-78
2023/05/07 10:57:52;;;;;;;4.10;3.70;;;21.70;93.10;;;;;;5069256;28;20554;-77
2023/05/07 11:00:43;;;;;;;7.00;3.07;;;21.70;93.20;;;;;;5068417;28;20440;-77
2023/05/07 11:03:11;;;;;;;3.13;2.93;;;21.80;95.00;;;;;;5062856;28;20463;-78
2023/05/07 11:05:39;;;;;;;3.33;3.10;;;21.90;94.80;;;;;;5068555;28;20455;-78
2023/05/07 11:08:06;;;;;;;3.20;3.00;;;21.80;93.80;;;;;;5068264;28;21036;-77
2023/05/07 11:10:53;;;;;;;4.10;3.50;;;21.70;95.90;;;;;;5068759;28;20506;-77
2023/05/07 11:13:44;;;;;;;3.43;3.13;;;21.80;93.20;;;;;;5068161;28;20456;-79
2023/05/07 11:16:19;;;;;;;3.40;3.10;;;22.00;93.50;;;;;;5067632;28;20448;-79
2023/05/07 11:18:52;;;;;;;3.63;3.40;;;22.20;91.80;;;;;;5067886;28;20452;-77
2023/05/07 11:21:36;;;;;;;2.50;2.40;;;22.30;91.80;;;;;;5065361;28;20457;-77
2023/05/07 11:24:04;;;;;;;3.47;3.20;;;22.30;90.80;;;;;;5056246;28;20451;-77
2023/05/07 11:26:41;;;;;;;2.97;2.67;;;22.00;91.30;;;;;;5056239;28;20969;-77
2023/05/07 11:29:12;;;;;;;3.70;3.30;;;22.00;93.40;;;;;;5065114;28;20452;-77
2023/05/07 11:31:39;;;;;;;3.07;2.60;;;21.90;91.30;;;;;;5067601;28;20494;-77
2023/05/07 11:34:08;;;;;;;4.30;3.03;;;22.00;93.00;;;;;;5066991;28;20593;-79
2023/05/07 11:36:36;;;;;;;3.33;3.03;;;21.90;91.60;;;;;;5067346;28;20440;-77
2023/05/07 11:39:03;;;;;;;3.17;2.90;;;21.60;91.90;;;;;;5061657;28;20491;-78
2023/05/07 11:41:37;;;;;;;4.27;3.87;;;21.60;93.40;;;;;;5065821;28;20485;-76
2023/05/07 11:44:04;;;;;;;2.43;2.23;;;21.60;91.60;;;;;;5062825;28;20468;-77
2023/05/07 11:46:31;;;;;;;3.07;2.80;;;22.00;92.80;;;;;;5063278;28;21013;-79
2023/05/07 11:48:58;;;;;;;3.83;3.60;;;21.90;90.50;;;;;;5063935;28;20469;-82
2023/05/07 11:51:27;;;;;;;2.47;2.27;;;22.20;92.40;;;;;;5062253;28;20460;-77
2023/05/07 11:53:54;;;;;;;5.10;2.90;;;22.30;91.20;;;;;;5066139;28;20443;-76
2023/05/07 11:56:21;;;;;;;3.80;3.27;;;22.30;91.40;;;;;;5056206;28;20537;-79
2023/05/07 11:58:50;;;;;;;2.80;2.60;;;22.30;91.70;;;;;;5065898;28;20461;-77
2023/05/07 12:01:18;;;;;;;2.83;2.63;;;22.60;92.10;;;;;;5064107;28;20479;-82
2023/05/07 12:03:46;;;;;;;3.30;3.00;;;22.90;91.20;;;;;;5055766;28;20441;-77
2023/05/07 12:06:15;;;;;;;2.50;2.40;;;22.60;87.40;;;;;;5057487;28;20464;-76
2023/05/07 12:08:44;;;;;;;3.30;2.03;;;22.50;90.20;;;;;;5065046;28;20438;-78
2023/05/07 12:11:17;;;;;;;1.70;1.13;;;22.40;87.90;;;;;;5075238;28;20462;-76
2023/05/07 12:13:44;;;;;;;2.20;2.10;;;22.10;86.80;;;;;;5081393;28;20495;-77
2023/05/07 12:16:11;;;;;;;2.30;2.20;;;21.90;87.30;;;;;;5068015;28;20436;-78
2023/05/07 12:18:39;;;;;;;3.43;2.60;;;22.10;90.30;;;;;;5067244;28;21211;-78
2023/05/07 12:21:07;;;;;;;3.10;2.40;;;21.90;91.50;;;;;;5066634;28;20452;-78
2023/05/07 12:23:35;;;;;;;2.70;2.50;;;22.20;90.20;;;;;;5059706;28;21033;-78
2023/05/07 12:26:04;;;;;;;2.37;2.17;;;22.10;89.50;;;;;;5057809;28;20461;-77
2023/05/07 12:28:36;;;;;;;2.50;2.30;;;22.20;90.10;;;;;;5060399;28;20488;-76
2023/05/07 12:31:05;;;;;;;3.07;2.33;;;22.30;86.70;;;;;;5062879;28;21406;-77
2023/05/07 12:33:32;;;;;;;2.30;2.10;;;22.30;92.00;;;;;;5056688;28;20465;-77
2023/05/07 12:36:03;;;;;;;2.57;2.37;;;22.10;89.50;;;;;;5062200;28;20457;-77
2023/05/07 12:38:36;;;;;;;2.57;2.37;;;22.00;87.50;;;;;;5067915;28;20441;-77
2023/05/07 12:41:05;;;;;;;2.33;2.13;;;22.00;87.00;;;;;;5054037;28;20864;-76
2023/05/07 12:43:32;;;;;;;3.63;3.37;;;22.30;90.80;;;;;;5063581;28;21142;-75
2023/05/07 12:46:03;;;;;;;2.83;2.63;;;22.60;87.80;;;;;;5065225;28;20514;-77
2023/05/07 12:48:30;;;;;;;2.30;2.20;;;22.60;91.20;;;;;;5065697;28;21317;-76
2023/05/07 12:51:00;;;;;;;2.60;2.40;;;22.30;88.90;;;;;;5064608;28;20536;-77